sensor_id;sensor_type;location;lat;lon;timestamp;temperature;humidity
15160;DHT22;7680;48.800;9.680;2023-05-13T00:00:06;10.50;99.90
15160;DHT22;7680;48.800;9.680;2023-05-13T00:02:41;10.50;99.90
15160;DHT22;7680;48.800;9.680;2023-05-13T00:05:14;10.50;99.90
15160;DHT22;7680;48.800;9.680;2023-05-13T00:07:48;10.50;99.90
15160;DHT22;7680;48.800;9.680;2023-05-13T00:10:21;10.40;99.90
15160;DHT22;7680;48.800;9.680;2023-05-13T00:12:54;10.40;99.90
15160;DHT22;7680;48.800;9.680;2023-05-13T00:15:27;10.40;99.90
15160;DHT22;7680;48.800;9.680;2023-05-13T00:18:02;10.40;99.90
15160;DHT22;7680;48.800;9.680;2023-05-13T00:20:35;10.30;99.90
15160;DHT22;7680;48.800;9.680;2023-05-13T00:23:08;10.30;99.90
15160;DHT22;7680;48.800;9.680;2023-05-13T00:25:42;10.30;99.90
15160;DHT22;7680;48.800;9.680;2023-05-13T00:28:15;10.30;99.90
15160;DHT22;7680;48.800;9.680;2023-05-13T00:30:48;10.30;99.90
15160;DHT22;7680;48.800;9.680;2023-05-13T00:33:23;10.30;99.90
15160;DHT22;7680;48.800;9.680;2023-05-13T00:35:56;10.20;99.90
15160;DHT22;7680;48.800;9.680;2023-05-13T00:38:29;10.20;99.90
15160;DHT22;7680;48.800;9.680;2023-05-13T00:41:03;10.20;99.90
15160;DHT22;7680;48.800;9.680;2023-05-13T00:43:36;10.20;99.90
15160;DHT22;7680;48.800;9.680;2023-05-13T00:46:09;10.20;99.90
15160;DHT22;7680;48.800;9.680;2023-05-13T00:48:44;10.20;99.90
15160;DHT22;7680;48.800;9.680;2023-05-13T00:51:17;10.20;99.90
15160;DHT22;7680;48.800;9.680;2023-05-13T00:53:50;10.00;99.90
15160;DHT22;7680;48.800;9.680;2023-05-13T00:56:24;9.90;99.90
15160;DHT22;7680;48.800;9.680;2023-05-13T00:58:58;9.90;99.90
15160;DHT22;7680;48.800;9.680;2023-05-13T01:01:36;9.80;99.90
15160;DHT22;7680;48.800;9.680;2023-05-13T01:04:19;9.80;99.90
15160;DHT22;7680;48.800;9.680;2023-05-13T01:07:11;9.70;99.90
15160;DHT22;7680;48.800;9.680;2023-05-13T01:09:51;9.60;99.90
15160;DHT22;7680;48.800;9.680;2023-05-13T01:12:32;9.60;99.90
15160;DHT22;7680;48.800;9.680;2023-05-13T01:15:08;9.60;99.90
15160;DHT22;7680;48.800;9.680;2023-05-13T01:17:46;9.60;99.90
15160;DHT22;7680;48.800;9.680;2023-05-13T01:20:23;9.70;99.90
15160;DHT22;7680;48.800;9.680;2023-05-13T01:23:00;9.70;99.90
15160;DHT22;7680;48.800;9.680;2023-05-13T01:25:34;9.70;99.90
15160;DHT22;7680;48.800;9.680;2023-05-13T01:28:08;9.70;99.90
15160;DHT22;7680;48.800;9.680;2023-05-13T01:30:41;9.70;99.90
15160;DHT22;7680;48.800;9.680;2023-05-13T01:33:14;9.70;99.90
15160;DHT22;7680;48.800;9.680;2023-05-13T01:35:48;9.70;99.90
15160;DHT22;7680;48.800;9.680;2023-05-13T01:38:23;9.70;99.90
15160;DHT22;7680;48.800;9.680;2023-05-13T01:40:58;9.80;99.90
15160;DHT22;7680;48.800;9.680;2023-05-13T01:43:31;9.80;99.90
15160;DHT22;7680;48.800;9.680;2023-05-13T01:46:10;9.80;99.90
15160;DHT22;7680;48.800;9.680;2023-05-13T01:48:44;9.80;99.90
15160;DHT22;7680;48.800;9.680;2023-05-13T01:51:17;9.90;99.90
15160;DHT22;7680;48.800;9.680;2023-05-13T01:53:51;9.90;99.90
15160;DHT22;7680;48.800;9.680;2023-05-13T01:56:24;9.90;99.90
15160;DHT22;7680;48.800;9.680;2023-05-13T01:58:57;9.80;99.90
15160;DHT22;7680;48.800;9.680;2023-05-13T02:01:30;9.80;99.90
15160;DHT22;7680;48.800;9.680;2023-05-13T02:04:03;9.80;99.90
15160;DHT22;7680;48.800;9.680;2023-05-13T02:06:37;9.90;99.90
15160;DHT22;7680;48.800;9.680;2023-05-13T02:09:11;9.90;99.90
15160;DHT22;7680;48.800;9.680;2023-05-13T02:11:44;9.90;99.90
15160;DHT22;7680;48.800;9.680;2023-05-13T02:14:17;9.80;99.90
15160;DHT22;7680;48.800;9.680;2023-05-13T02:16:51;10.00;99.90
15160;DHT22;7680;48.800;9.680;2023-05-13T02:19:24;9.90;99.90
15160;DHT22;7680;48.800;9.680;2023-05-13T02:21:57;9.80;99.90
15160;DHT22;7680;48.800;9.680;2023-05-13T02:24:31;9.90;99.90
15160;DHT22;7680;48.800;9.680;2023-05-13T02:27:06;10.00;99.90
15160;DHT22;7680;48.800;9.680;2023-05-13T02:29:39;10.00;99.90
15160;DHT22;7680;48.800;9.680;2023-05-13T02:32:12;10.00;99.90
15160;DHT22;7680;48.800;9.680;2023-05-13T02:34:45;10.00;99.90
15160;DHT22;7680;48.800;9.680;2023-05-13T02:37:18;10.10;99.90
15160;DHT22;7680;48.800;9.680;2023-05-13T02:39:52;10.10;99.90
15160;DHT22;7680;48.800;9.680;2023-05-13T02:42:25;10.00;99.90
15160;DHT22;7680;48.800;9.680;2023-05-13T02:44:58;10.00;99.90
15160;DHT22;7680;48.800;9.680;2023-05-13T02:47:31;10.00;99.90
15160;DHT22;7680;48.800;9.680;2023-05-13T02:50:06;10.00;99.90
15160;DHT22;7680;48.800;9.680;2023-05-13T02:52:40;9.90;99.90
15160;DHT22;7680;48.800;9.680;2023-05-13T02:55:14;9.90;99.90
15160;DHT22;7680;48.800;9.680;2023-05-13T02:57:47;9.90;99.90
15160;DHT22;7680;48.800;9.680;2023-05-13T03:00:21;9.90;99.90
15160;DHT22;7680;48.800;9.680;2023-05-13T03:02:54;9.80;99.90
15160;DHT22;7680;48.800;9.680;2023-05-13T03:05:28;9.80;99.90
15160;DHT22;7680;48.800;9.680;2023-05-13T03:08:01;9.80;99.90
15160;DHT22;7680;48.800;9.680;2023-05-13T03:10:35;9.80;99.90
15160;DHT22;7680;48.800;9.680;2023-05-13T03:13:08;9.90;99.90
15160;DHT22;7680;48.800;9.680;2023-05-13T03:15:41;9.80;99.90
15160;DHT22;7680;48.800;9.680;2023-05-13T03:18:15;9.80;99.90
15160;DHT22;7680;48.800;9.680;2023-05-13T03:20:48;9.90;99.90
15160;DHT22;7680;48.800;9.680;2023-05-13T03:23:21;9.90;99.90
15160;DHT22;7680;48.800;9.680;2023-05-13T03:25:55;9.90;99.90
15160;DHT22;7680;48.800;9.680;2023-05-13T03:28:28;9.80;99.90
15160;DHT22;7680;48.800;9.680;2023-05-13T03:31:01;9.80;99.90
15160;DHT22;7680;48.800;9.680;2023-05-13T03:33:34;9.90;99.90
15160;DHT22;7680;48.800;9.680;2023-05-13T03:36:08;9.90;99.90
15160;DHT22;7680;48.800;9.680;2023-05-13T03:38:41;9.90;99.90
15160;DHT22;7680;48.800;9.680;2023-05-13T03:41:15;9.90;99.90
15160;DHT22;7680;48.800;9.680;2023-05-13T03:43:48;9.90;99.90
15160;DHT22;7680;48.800;9.680;2023-05-13T03:46:21;10.00;99.90
15160;DHT22;7680;48.800;9.680;2023-05-13T03:48:54;10.00;99.90
15160;DHT22;7680;48.800;9.680;2023-05-13T03:51:27;10.00;99.90
15160;DHT22;7680;48.800;9.680;2023-05-13T03:54:01;10.00;99.90
15160;DHT22;7680;48.800;9.680;2023-05-13T03:56:36;10.00;99.90
15160;DHT22;7680;48.800;9.680;2023-05-13T03:59:09;10.00;99.90
15160;DHT22;7680;48.800;9.680;2023-05-13T04:01:42;10.00;99.90
15160;DHT22;7680;48.800;9.680;2023-05-13T04:04:15;10.00;99.90
15160;DHT22;7680;48.800;9.680;2023-05-13T04:06:48;10.00;99.90
15160;DHT22;7680;48.800;9.680;2023-05-13T04:09:21;10.10;99.90
15160;DHT22;7680;48.800;9.680;2023-05-13T04:11:55;10.10;99.90
15160;DHT22;7680;48.800;9.680;2023-05-13T04:14:28;10.10;99.90
15160;DHT22;7680;48.800;9.680;2023-05-13T04:17:01;10.10;99.90
15160;DHT22;7680;48.800;9.680;2023-05-13T04:19:34;10.10;99.90
15160;DHT22;7680;48.800;9.680;2023-05-13T04:22:07;10.10;99.90
15160;DHT22;7680;48.800;9.680;2023-05-13T04:24:40;10.00;99.90
15160;DHT22;7680;48.800;9.680;2023-05-13T04:27:14;10.00;99.90
15160;DHT22;7680;48.800;9.680;2023-05-13T04:29:47;9.90;99.90
15160;DHT22;7680;48.800;9.680;2023-05-13T04:32:20;9.90;99.90
15160;DHT22;7680;48.800;9.680;2023-05-13T04:34:54;9.90;99.90
15160;DHT22;7680;48.800;9.680;2023-05-13T04:37:27;10.00;99.90
15160;DHT22;7680;48.800;9.680;2023-05-13T04:40:00;10.00;99.90
15160;DHT22;7680;48.800;9.680;2023-05-13T04:42:34;10.10;99.90
15160;DHT22;7680;48.800;9.680;2023-05-13T04:45:08;10.10;99.90
15160;DHT22;7680;48.800;9.680;2023-05-13T04:47:41;10.10;99.90
15160;DHT22;7680;48.800;9.680;2023-05-13T04:50:15;10.10;99.90
15160;DHT22;7680;48.800;9.680;2023-05-13T04:52:48;10.20;99.90
15160;DHT22;7680;48.800;9.680;2023-05-13T04:55:21;10.20;99.90
15160;DHT22;7680;48.800;9.680;2023-05-13T04:57:58;10.10;99.90
15160;DHT22;7680;48.800;9.680;2023-05-13T05:00:31;10.30;99.90
15160;DHT22;7680;48.800;9.680;2023-05-13T05:03:04;10.30;99.90
15160;DHT22;7680;48.800;9.680;2023-05-13T05:05:37;10.30;99.90
15160;DHT22;7680;48.800;9.680;2023-05-13T05:08:10;10.30;99.90
15160;DHT22;7680;48.800;9.680;2023-05-13T05:10:43;10.40;99.90
15160;DHT22;7680;48.800;9.680;2023-05-13T05:13:17;10.50;99.90
15160;DHT22;7680;48.800;9.680;2023-05-13T05:15:50;10.50;99.90
15160;DHT22;7680;48.800;9.680;2023-05-13T05:18:23;10.50;99.90
15160;DHT22;7680;48.800;9.680;2023-05-13T05:20:56;10.50;99.90
15160;DHT22;7680;48.800;9.680;2023-05-13T05:23:33;10.50;99.90
15160;DHT22;7680;48.800;9.680;2023-05-13T05:26:06;10.60;99.90
15160;DHT22;7680;48.800;9.680;2023-05-13T05:28:44;10.60;99.90
15160;DHT22;7680;48.800;9.680;2023-05-13T05:31:18;10.60;99.90
15160;DHT22;7680;48.800;9.680;2023-05-13T05:33:51;10.60;99.90
15160;DHT22;7680;48.800;9.680;2023-05-13T05:36:24;10.60;99.90
15160;DHT22;7680;48.800;9.680;2023-05-13T05:38:57;10.60;99.90
15160;DHT22;7680;48.800;9.680;2023-05-13T05:41:31;10.60;99.90
15160;DHT22;7680;48.800;9.680;2023-05-13T05:44:06;10.70;99.90
15160;DHT22;7680;48.800;9.680;2023-05-13T05:46:39;10.70;99.90
15160;DHT22;7680;48.800;9.680;2023-05-13T05:49:12;10.70;99.90
15160;DHT22;7680;48.800;9.680;2023-05-13T05:51:45;10.70;99.90
15160;DHT22;7680;48.800;9.680;2023-05-13T05:54:18;10.80;99.90
15160;DHT22;7680;48.800;9.680;2023-05-13T05:56:52;10.90;99.90
15160;DHT22;7680;48.800;9.680;2023-05-13T05:59:26;11.00;99.90
15160;DHT22;7680;48.800;9.680;2023-05-13T06:01:59;11.00;99.90
15160;DHT22;7680;48.800;9.680;2023-05-13T06:04:32;11.10;99.90
15160;DHT22;7680;48.800;9.680;2023-05-13T06:07:05;11.20;99.90
15160;DHT22;7680;48.800;9.680;2023-05-13T06:09:38;11.20;99.90
15160;DHT22;7680;48.800;9.680;2023-05-13T06:12:11;11.10;99.90
15160;DHT22;7680;48.800;9.680;2023-05-13T06:14:46;11.10;99.90
15160;DHT22;7680;48.800;9.680;2023-05-13T06:17:18;11.10;99.90
15160;DHT22;7680;48.800;9.680;2023-05-13T06:19:51;11.20;99.90
15160;DHT22;7680;48.800;9.680;2023-05-13T06:22:24;11.20;99.90
15160;DHT22;7680;48.800;9.680;2023-05-13T06:24:57;11.20;99.90
15160;DHT22;7680;48.800;9.680;2023-05-13T06:27:31;11.20;99.90
15160;DHT22;7680;48.800;9.680;2023-05-13T06:30:07;11.20;99.90
15160;DHT22;7680;48.800;9.680;2023-05-13T06:32:41;11.20;99.90
15160;DHT22;7680;48.800;9.680;2023-05-13T06:35:31;11.30;99.90
15160;DHT22;7680;48.800;9.680;2023-05-13T06:38:04;11.40;99.90
15160;DHT22;7680;48.800;9.680;2023-05-13T06:40:37;11.30;99.90
15160;DHT22;7680;48.800;9.680;2023-05-13T06:43:10;11.40;99.90
15160;DHT22;7680;48.800;9.680;2023-05-13T06:45:46;11.40;99.90
15160;DHT22;7680;48.800;9.680;2023-05-13T06:48:19;11.40;99.90
15160;DHT22;7680;48.800;9.680;2023-05-13T06:50:52;11.40;99.90
15160;DHT22;7680;48.800;9.680;2023-05-13T06:53:25;11.50;99.90
15160;DHT22;7680;48.800;9.680;2023-05-13T06:55:58;11.60;99.90
15160;DHT22;7680;48.800;9.680;2023-05-13T06:58:31;11.70;99.90
15160;DHT22;7680;48.800;9.680;2023-05-13T07:01:05;11.70;99.90
15160;DHT22;7680;48.800;9.680;2023-05-13T07:03:38;11.80;99.90
15160;DHT22;7680;48.800;9.680;2023-05-13T07:06:11;11.90;99.90
15160;DHT22;7680;48.800;9.680;2023-05-13T07:08:44;12.00;99.90
15160;DHT22;7680;48.800;9.680;2023-05-13T07:11:17;12.00;99.90
15160;DHT22;7680;48.800;9.680;2023-05-13T07:13:50;11.90;99.90
15160;DHT22;7680;48.800;9.680;2023-05-13T07:16:24;12.00;99.90
15160;DHT22;7680;48.800;9.680;2023-05-13T07:18:58;12.10;99.90
15160;DHT22;7680;48.800;9.680;2023-05-13T07:21:31;12.30;99.90
15160;DHT22;7680;48.800;9.680;2023-05-13T07:24:04;12.20;99.90
15160;DHT22;7680;48.800;9.680;2023-05-13T07:26:37;12.30;99.90
15160;DHT22;7680;48.800;9.680;2023-05-13T07:29:10;12.40;99.90
15160;DHT22;7680;48.800;9.680;2023-05-13T07:31:44;12.40;99.90
15160;DHT22;7680;48.800;9.680;2023-05-13T07:34:17;12.40;99.90
15160;DHT22;7680;48.800;9.680;2023-05-13T07:36:50;12.50;99.90
15160;DHT22;7680;48.800;9.680;2023-05-13T07:39:23;12.50;99.90
15160;DHT22;7680;48.800;9.680;2023-05-13T07:41:57;12.60;99.90
15160;DHT22;7680;48.800;9.680;2023-05-13T07:44:30;12.70;99.90
15160;DHT22;7680;48.800;9.680;2023-05-13T07:47:04;12.60;99.90
15160;DHT22;7680;48.800;9.680;2023-05-13T07:49:38;12.70;99.90
15160;DHT22;7680;48.800;9.680;2023-05-13T07:52:11;12.50;99.90
15160;DHT22;7680;48.800;9.680;2023-05-13T07:54:44;12.40;99.90
15160;DHT22;7680;48.800;9.680;2023-05-13T07:57:17;12.30;99.90
15160;DHT22;7680;48.800;9.680;2023-05-13T07:59:50;12.50;99.90
15160;DHT22;7680;48.800;9.680;2023-05-13T08:02:26;12.70;99.90
15160;DHT22;7680;48.800;9.680;2023-05-13T08:05:05;12.80;99.90
15160;DHT22;7680;48.800;9.680;2023-05-13T08:07:39;12.90;99.90
15160;DHT22;7680;48.800;9.680;2023-05-13T08:10:12;12.90;99.90
15160;DHT22;7680;48.800;9.680;2023-05-13T08:12:45;13.00;99.90
15160;DHT22;7680;48.800;9.680;2023-05-13T08:15:22;13.00;99.90
15160;DHT22;7680;48.800;9.680;2023-05-13T08:17:57;13.00;99.90
15160;DHT22;7680;48.800;9.680;2023-05-13T08:20:30;12.80;99.90
15160;DHT22;7680;48.800;9.680;2023-05-13T08:23:03;12.90;99.90
15160;DHT22;7680;48.800;9.680;2023-05-13T08:25:36;12.90;99.90
15160;DHT22;7680;48.800;9.680;2023-05-13T08:28:09;13.00;99.90
15160;DHT22;7680;48.800;9.680;2023-05-13T08:30:42;12.90;99.90
15160;DHT22;7680;48.800;9.680;2023-05-13T08:33:17;12.90;99.90
15160;DHT22;7680;48.800;9.680;2023-05-13T08:35:50;13.00;99.90
15160;DHT22;7680;48.800;9.680;2023-05-13T08:38:23;13.00;99.90
15160;DHT22;7680;48.800;9.680;2023-05-13T08:40:56;12.80;99.90
15160;DHT22;7680;48.800;9.680;2023-05-13T08:43:31;12.80;99.90
15160;DHT22;7680;48.800;9.680;2023-05-13T08:46:07;12.80;99.90
15160;DHT22;7680;48.800;9.680;2023-05-13T08:48:43;12.80;99.90
15160;DHT22;7680;48.800;9.680;2023-05-13T08:51:16;12.70;99.90
15160;DHT22;7680;48.800;9.680;2023-05-13T08:53:50;12.60;99.90
15160;DHT22;7680;48.800;9.680;2023-05-13T08:56:25;12.70;99.90
15160;DHT22;7680;48.800;9.680;2023-05-13T08:59:00;12.80;99.90
15160;DHT22;7680;48.800;9.680;2023-05-13T09:01:33;12.80;99.90
15160;DHT22;7680;48.800;9.680;2023-05-13T09:04:08;13.20;99.90
15160;DHT22;7680;48.800;9.680;2023-05-13T09:06:42;13.10;99.90
15160;DHT22;7680;48.800;9.680;2023-05-13T09:09:15;13.20;99.90
15160;DHT22;7680;48.800;9.680;2023-05-13T09:11:48;13.20;99.90
15160;DHT22;7680;48.800;9.680;2023-05-13T09:14:21;13.30;99.90
15160;DHT22;7680;48.800;9.680;2023-05-13T09:17:00;13.30;99.90
15160;DHT22;7680;48.800;9.680;2023-05-13T09:19:35;13.50;99.90
15160;DHT22;7680;48.800;9.680;2023-05-13T09:22:16;13.60;99.90
15160;DHT22;7680;48.800;9.680;2023-05-13T09:24:53;13.70;99.90
15160;DHT22;7680;48.800;9.680;2023-05-13T09:27:35;13.70;99.90
15160;DHT22;7680;48.800;9.680;2023-05-13T09:30:10;13.50;99.90
15160;DHT22;7680;48.800;9.680;2023-05-13T09:32:43;13.50;99.90
15160;DHT22;7680;48.800;9.680;2023-05-13T09:35:17;13.40;99.90
15160;DHT22;7680;48.800;9.680;2023-05-13T09:37:50;13.40;99.90
15160;DHT22;7680;48.800;9.680;2023-05-13T09:40:23;13.60;99.90
15160;DHT22;7680;48.800;9.680;2023-05-13T09:42:56;13.80;99.90
15160;DHT22;7680;48.800;9.680;2023-05-13T09:45:31;14.00;99.90
15160;DHT22;7680;48.800;9.680;2023-05-13T09:48:05;14.30;99.90
15160;DHT22;7680;48.800;9.680;2023-05-13T09:50:47;14.30;99.90
15160;DHT22;7680;48.800;9.680;2023-05-13T09:53:21;14.50;99.90
15160;DHT22;7680;48.800;9.680;2023-05-13T09:55:55;14.50;99.90
15160;DHT22;7680;48.800;9.680;2023-05-13T09:58:30;14.30;99.90
15160;DHT22;7680;48.800;9.680;2023-05-13T10:01:03;14.10;99.90
15160;DHT22;7680;48.800;9.680;2023-05-13T10:03:37;14.00;99.90
15160;DHT22;7680;48.800;9.680;2023-05-13T10:06:11;14.10;99.90
15160;DHT22;7680;48.800;9.680;2023-05-13T10:08:46;14.10;99.90
15160;DHT22;7680;48.800;9.680;2023-05-13T10:11:23;14.00;99.90
15160;DHT22;7680;48.800;9.680;2023-05-13T10:13:59;14.10;99.90
15160;DHT22;7680;48.800;9.680;2023-05-13T10:16:33;13.90;99.90
15160;DHT22;7680;48.800;9.680;2023-05-13T10:19:06;13.80;99.90
15160;DHT22;7680;48.800;9.680;2023-05-13T10:21:41;13.70;99.90
15160;DHT22;7680;48.800;9.680;2023-05-13T10:24:14;13.70;99.90
15160;DHT22;7680;48.800;9.680;2023-05-13T10:26:48;13.70;99.90
15160;DHT22;7680;48.800;9.680;2023-05-13T10:29:24;13.80;99.90
15160;DHT22;7680;48.800;9.680;2023-05-13T10:31:58;13.90;99.90
15160;DHT22;7680;48.800;9.680;2023-05-13T10:34:32;13.70;99.90
15160;DHT22;7680;48.800;9.680;2023-05-13T10:40:51;13.50;99.90
15160;DHT22;7680;48.800;9.680;2023-05-13T10:43:41;13.60;99.90
15160;DHT22;7680;48.800;9.680;2023-05-13T10:46:14;13.70;99.90
15160;DHT22;7680;48.800;9.680;2023-05-13T10:48:58;13.60;99.90
15160;DHT22;7680;48.800;9.680;2023-05-13T10:51:31;13.70;99.90
15160;DHT22;7680;48.800;9.680;2023-05-13T10:54:17;13.90;99.90
15160;DHT22;7680;48.800;9.680;2023-05-13T10:56:55;13.90;99.90
15160;DHT22;7680;48.800;9.680;2023-05-13T10:59:29;14.00;99.90
15160;DHT22;7680;48.800;9.680;2023-05-13T11:02:02;14.00;99.90
15160;DHT22;7680;48.800;9.680;2023-05-13T11:04:59;14.20;99.90
15160;DHT22;7680;48.800;9.680;2023-05-13T11:07:36;14.40;99.90
15160;DHT22;7680;48.800;9.680;2023-05-13T11:10:24;14.20;99.90
15160;DHT22;7680;48.800;9.680;2023-05-13T11:13:20;14.20;99.90
15160;DHT22;7680;48.800;9.680;2023-05-13T11:15:55;14.30;99.90
15160;DHT22;7680;48.800;9.680;2023-05-13T11:18:29;14.30;99.90
15160;DHT22;7680;48.800;9.680;2023-05-13T11:21:03;14.30;99.90
15160;DHT22;7680;48.800;9.680;2023-05-13T11:23:55;14.40;99.90
15160;DHT22;7680;48.800;9.680;2023-05-13T11:26:45;14.40;99.90
15160;DHT22;7680;48.800;9.680;2023-05-13T11:29:29;14.10;99.90
15160;DHT22;7680;48.800;9.680;2023-05-13T11:32:04;14.10;99.90
15160;DHT22;7680;48.800;9.680;2023-05-13T11:34:49;14.00;99.90
15160;DHT22;7680;48.800;9.680;2023-05-13T11:37:22;14.00;99.90
15160;DHT22;7680;48.800;9.680;2023-05-13T11:39:55;13.90;99.90
15160;DHT22;7680;48.800;9.680;2023-05-13T11:42:30;13.80;99.90
15160;DHT22;7680;48.800;9.680;2023-05-13T11:45:05;13.80;99.90
15160;DHT22;7680;48.800;9.680;2023-05-13T11:47:39;13.80;99.90
15160;DHT22;7680;48.800;9.680;2023-05-13T11:50:19;13.80;99.90
15160;DHT22;7680;48.800;9.680;2023-05-13T11:52:54;13.80;99.90
15160;DHT22;7680;48.800;9.680;2023-05-13T11:55:28;13.80;99.90
15160;DHT22;7680;48.800;9.680;2023-05-13T11:58:04;13.90;99.90
15160;DHT22;7680;48.800;9.680;2023-05-13T12:00:37;14.30;99.90
15160;DHT22;7680;48.800;9.680;2023-05-13T12:03:11;14.30;99.90
15160;DHT22;7680;48.800;9.680;2023-05-13T12:05:47;14.40;99.90
15160;DHT22;7680;48.800;9.680;2023-05-13T12:08:21;14.40;99.90
15160;DHT22;7680;48.800;9.680;2023-05-13T12:10:54;14.60;99.90
15160;DHT22;7680;48.800;9.680;2023-05-13T12:13:29;14.50;99.90
15160;DHT22;7680;48.800;9.680;2023-05-13T12:16:02;14.50;99.90
15160;DHT22;7680;48.800;9.680;2023-05-13T12:18:36;14.50;99.90
15160;DHT22;7680;48.800;9.680;2023-05-13T12:21:14;14.40;99.90
15160;DHT22;7680;48.800;9.680;2023-05-13T12:23:47;14.20;99.90
15160;DHT22;7680;48.800;9.680;2023-05-13T12:26:20;14.30;99.90
15160;DHT22;7680;48.800;9.680;2023-05-13T12:28:58;14.20;99.90
15160;DHT22;7680;48.800;9.680;2023-05-13T12:31:31;14.10;99.90
15160;DHT22;7680;48.800;9.680;2023-05-13T12:34:05;14.10;99.90
15160;DHT22;7680;48.800;9.680;2023-05-13T12:36:38;14.40;99.90
15160;DHT22;7680;48.800;9.680;2023-05-13T12:39:18;14.40;99.90
15160;DHT22;7680;48.800;9.680;2023-05-13T12:41:52;14.20;99.90
15160;DHT22;7680;48.800;9.680;2023-05-13T12:44:26;14.10;99.90
15160;DHT22;7680;48.800;9.680;2023-05-13T12:47:00;14.00;99.90
15160;DHT22;7680;48.800;9.680;2023-05-13T12:49:34;14.20;99.90
15160;DHT22;7680;48.800;9.680;2023-05-13T12:52:08;14.30;99.90
15160;DHT22;7680;48.800;9.680;2023-05-13T12:54:40;14.30;99.90
15160;DHT22;7680;48.800;9.680;2023-05-13T12:57:14;14.50;99.90
15160;DHT22;7680;48.800;9.680;2023-05-13T12:59:50;14.30;99.90
15160;DHT22;7680;48.800;9.680;2023-05-13T13:02:23;14.40;99.90
15160;DHT22;7680;48.800;9.680;2023-05-13T13:04:56;14.10;99.90
15160;DHT22;7680;48.800;9.680;2023-05-13T13:07:29;14.20;99.90
15160;DHT22;7680;48.800;9.680;2023-05-13T13:10:03;14.60;99.90
15160;DHT22;7680;48.800;9.680;2023-05-13T13:12:36;14.50;99.90
15160;DHT22;7680;48.800;9.680;2023-05-13T13:15:11;14.10;99.90
15160;DHT22;7680;48.800;9.680;2023-05-13T13:17:44;13.90;99.90
15160;DHT22;7680;48.800;9.680;2023-05-13T13:20:17;13.80;99.90
15160;DHT22;7680;48.800;9.680;2023-05-13T13:22:52;13.80;99.90
15160;DHT22;7680;48.800;9.680;2023-05-13T13:25:25;13.80;99.90
15160;DHT22;7680;48.800;9.680;2023-05-13T13:27:59;13.80;99.90
15160;DHT22;7680;48.800;9.680;2023-05-13T13:30:33;13.80;99.90
15160;DHT22;7680;48.800;9.680;2023-05-13T13:33:06;13.80;99.90
15160;DHT22;7680;48.800;9.680;2023-05-13T13:35:44;13.80;99.90
15160;DHT22;7680;48.800;9.680;2023-05-13T13:38:17;13.80;99.90
15160;DHT22;7680;48.800;9.680;2023-05-13T13:40:50;13.80;99.90
15160;DHT22;7680;48.800;9.680;2023-05-13T13:43:23;13.80;99.90
15160;DHT22;7680;48.800;9.680;2023-05-13T13:45:57;13.90;99.90
15160;DHT22;7680;48.800;9.680;2023-05-13T13:48:30;14.00;99.90
15160;DHT22;7680;48.800;9.680;2023-05-13T13:51:04;14.10;99.90
15160;DHT22;7680;48.800;9.680;2023-05-13T13:53:37;14.30;99.90
15160;DHT22;7680;48.800;9.680;2023-05-13T13:56:10;14.40;99.90
15160;DHT22;7680;48.800;9.680;2023-05-13T13:58:43;14.40;99.90
15160;DHT22;7680;48.800;9.680;2023-05-13T14:01:17;14.50;99.90
15160;DHT22;7680;48.800;9.680;2023-05-13T14:03:51;14.50;99.90
15160;DHT22;7680;48.800;9.680;2023-05-13T14:06:25;14.60;99.90
15160;DHT22;7680;48.800;9.680;2023-05-13T14:08:58;14.80;99.90
15160;DHT22;7680;48.800;9.680;2023-05-13T14:11:31;14.70;99.90
15160;DHT22;7680;48.800;9.680;2023-05-13T14:14:04;14.80;99.90
15160;DHT22;7680;48.800;9.680;2023-05-13T14:16:39;15.00;99.90
15160;DHT22;7680;48.800;9.680;2023-05-13T14:19:12;15.20;99.90
15160;DHT22;7680;48.800;9.680;2023-05-13T14:21:45;15.10;99.90
15160;DHT22;7680;48.800;9.680;2023-05-13T14:24:18;15.30;99.90
15160;DHT22;7680;48.800;9.680;2023-05-13T14:26:51;15.40;99.90
15160;DHT22;7680;48.800;9.680;2023-05-13T14:29:24;15.20;99.90
15160;DHT22;7680;48.800;9.680;2023-05-13T14:31:59;15.10;99.90
15160;DHT22;7680;48.800;9.680;2023-05-13T14:34:34;15.10;99.90
15160;DHT22;7680;48.800;9.680;2023-05-13T14:37:07;15.10;99.90
15160;DHT22;7680;48.800;9.680;2023-05-13T14:39:40;15.10;99.90
15160;DHT22;7680;48.800;9.680;2023-05-13T14:42:13;15.20;99.90
15160;DHT22;7680;48.800;9.680;2023-05-13T14:44:46;15.60;99.90
15160;DHT22;7680;48.800;9.680;2023-05-13T14:47:20;15.40;99.90
15160;DHT22;7680;48.800;9.680;2023-05-13T14:49:53;15.50;99.90
15160;DHT22;7680;48.800;9.680;2023-05-13T14:52:26;15.50;99.90
15160;DHT22;7680;48.800;9.680;2023-05-13T14:54:59;15.40;99.90
15160;DHT22;7680;48.800;9.680;2023-05-13T14:57:32;15.30;99.90
15160;DHT22;7680;48.800;9.680;2023-05-13T15:00:07;15.20;99.90
15160;DHT22;7680;48.800;9.680;2023-05-13T15:02:42;15.20;99.90
15160;DHT22;7680;48.800;9.680;2023-05-13T15:05:15;15.00;99.90
15160;DHT22;7680;48.800;9.680;2023-05-13T15:07:48;14.90;99.90
15160;DHT22;7680;48.800;9.680;2023-05-13T15:10:22;15.00;99.90
15160;DHT22;7680;48.800;9.680;2023-05-13T15:12:55;14.80;99.90
15160;DHT22;7680;48.800;9.680;2023-05-13T15:15:29;14.70;99.90
15160;DHT22;7680;48.800;9.680;2023-05-13T15:18:04;14.70;99.90
15160;DHT22;7680;48.800;9.680;2023-05-13T15:20:37;15.00;99.90
15160;DHT22;7680;48.800;9.680;2023-05-13T15:23:10;15.00;99.90
15160;DHT22;7680;48.800;9.680;2023-05-13T15:25:44;15.20;99.90
15160;DHT22;7680;48.800;9.680;2023-05-13T15:28:18;15.00;99.90
15160;DHT22;7680;48.800;9.680;2023-05-13T15:30:51;15.10;99.90
15160;DHT22;7680;48.800;9.680;2023-05-13T15:33:26;15.00;99.90
15160;DHT22;7680;48.800;9.680;2023-05-13T15:35:59;14.80;99.90
15160;DHT22;7680;48.800;9.680;2023-05-13T15:38:32;14.80;99.90
15160;DHT22;7680;48.800;9.680;2023-05-13T15:41:05;14.70;99.90
15160;DHT22;7680;48.800;9.680;2023-05-13T15:43:38;14.90;99.90
15160;DHT22;7680;48.800;9.680;2023-05-13T15:46:11;15.00;99.90
15160;DHT22;7680;48.800;9.680;2023-05-13T15:48:46;15.20;99.90
15160;DHT22;7680;48.800;9.680;2023-05-13T15:51:19;15.20;99.90
15160;DHT22;7680;48.800;9.680;2023-05-13T15:53:52;15.10;99.90
15160;DHT22;7680;48.800;9.680;2023-05-13T15:56:25;15.10;99.90
15160;DHT22;7680;48.800;9.680;2023-05-13T15:58:58;15.20;99.90
15160;DHT22;7680;48.800;9.680;2023-05-13T16:01:31;15.20;99.90
15160;DHT22;7680;48.800;9.680;2023-05-13T16:04:05;15.10;99.90
15160;DHT22;7680;48.800;9.680;2023-05-13T16:06:38;15.20;99.90
15160;DHT22;7680;48.800;9.680;2023-05-13T16:09:11;15.20;99.90
15160;DHT22;7680;48.800;9.680;2023-05-13T16:11:44;15.00;99.90
15160;DHT22;7680;48.800;9.680;2023-05-13T16:14:17;15.00;99.90
15160;DHT22;7680;48.800;9.680;2023-05-13T16:16:50;15.00;99.90
15160;DHT22;7680;48.800;9.680;2023-05-13T16:19:25;15.20;99.90
15160;DHT22;7680;48.800;9.680;2023-05-13T16:21:58;15.20;99.90
15160;DHT22;7680;48.800;9.680;2023-05-13T16:24:31;15.10;99.90
15160;DHT22;7680;48.800;9.680;2023-05-13T16:27:04;15.20;99.90
15160;DHT22;7680;48.800;9.680;2023-05-13T16:29:37;15.00;99.90
15160;DHT22;7680;48.800;9.680;2023-05-13T16:32:11;14.90;99.90
15160;DHT22;7680;48.800;9.680;2023-05-13T16:34:45;14.90;99.90